Decoded Metar for KAFF (USAF ACADEMY/COS in CO, USA) (IATA:AFF) | Meteo·Mobile Aviation Weather
aviador You're here:

KAFF Decoded Metar

USAF ACADEMY/COS in CO, USA
Report Time2019-04-25 11:58:00
UTC Time2019-04-25 12:43:04
Flight Rules mvfr MVFR
Wind360° at 17 kt
W.Decomp.*RWY 34: 16.8 kt HW 2.7 kt RCW
RWY 26: 0.3 kt HW 17.0 kt RCW
Visibility9999 m
Phenomena:N/A
Clouds:Broken 012 Hf
Overcast 017 Hf
Expected CloudBase > 400 ft AGL from Temp-Dew spread
Ceiling1,200 ft
Temp04°C (ISA +2)
Dew Point03°C (93% RH)
AAT-3.6°C
QNH1021 hPa
Density Alt6,667 ft
Elevation6,572 ft
Report Wrong Elevation
Raw Report
KAFF 251158Z 36017KT 10SM BKN012 OVC017 04/03 A3016 RMK AO2A DZE38
SLP168 P0000 60000 T00440026 10097 20041 51028=

Extra information for KAFF:More info

Metar Taf Metar & Taf Last 4 Metars F.Rules Stats Wind Profile Meteogram Temp Stats Airport Information Weather charts Add Link Nearby VenuesMetar ALERT Operation Metar Decoded Social comments

AIRNAV info for KAFF